Terminal Aerodrome Forecast
Issued by NWS Tampa Bay Area, FL

Home | Current Version | Previous Version | Text Only | Print | Product List | Glossary On
Versions: 1 2 3 4 5 6 7 8 9 10 11 12 13 14 15 16 17 18 19 20 21 22 23 24 25 26 27 28
000
FTUS42 KTBW 110800 AAA
TAFTPA
TAF AMD
KTPA 110845Z 1109/1206 VRB03KT P6SM FEW030 FEW250
     FM111500 18006KT P6SM SCT030 SCT150
     FM111800 24007KT P6SM VCTS SCT035CB BKN150
     FM112200 28006KT P6SM VCTS BKN040CB BKN200
     FM120200 VRB03KT P6SM SCT100 BKN200=

USA.gov is the U.S. government's official web portal to all federal, state and local government web resources and services.